createdAt,value
2022-09-07T00:00:22.504Z,87.80
2022-09-07T00:02:52.031Z,86.70
2022-09-07T00:05:22.884Z,87.50
2022-09-07T00:07:52.193Z,86.20
2022-09-07T00:10:23.281Z,86.40
2022-09-07T00:12:53.837Z,88.00
2022-09-07T00:15:23.410Z,87.60
2022-09-07T00:17:52.835Z,86.80
2022-09-07T00:20:23.671Z,87.90
2022-09-07T00:23:11.268Z,87.10
2022-09-07T00:25:41.485Z,88.80
2022-09-07T00:28:10.869Z,88.70
2022-09-07T00:30:43.611Z,88.80
2022-09-07T00:33:13.058Z,88.70
2022-09-07T00:35:44.250Z,88.90
2022-09-07T00:38:13.954Z,89.60
2022-09-07T00:40:43.419Z,90.10
2022-09-07T00:43:18.703Z,89.50
2022-09-07T00:45:48.346Z,89.40
2022-09-07T00:48:20.989Z,89.80
2022-09-07T00:50:57.270Z,89.90
2022-09-07T00:53:30.984Z,88.90
2022-09-07T00:56:02.814Z,89.30
2022-09-07T00:58:32.952Z,88.70
2022-09-07T01:01:02.404Z,89.50
2022-09-07T01:03:35.680Z,89.50
2022-09-07T01:06:13.997Z,89.00
2022-09-07T01:08:44.481Z,89.20
2022-09-07T01:11:14.559Z,89.80
2022-09-07T01:13:46.319Z,90.00
2022-09-07T01:16:33.115Z,89.10
2022-09-07T01:19:32.040Z,89.80
2022-09-07T01:22:25.805Z,90.10
2022-09-07T01:25:05.273Z,90.00
2022-09-07T01:28:05.133Z,88.80
2022-09-07T01:30:38.932Z,89.80
2022-09-07T01:33:41.380Z,89.50
2022-09-07T01:36:23.392Z,89.00
2022-09-07T01:38:56.770Z,88.80
2022-09-07T01:41:32.242Z,88.40
2022-09-07T01:44:07.807Z,89.00
2022-09-07T01:46:44.297Z,90.00
2022-09-07T01:49:19.480Z,90.10
2022-09-07T01:51:54.721Z,90.40
2022-09-07T01:54:31.118Z,90.50
2022-09-07T01:57:04.888Z,90.30
2022-09-07T01:59:39.630Z,90.20
2022-09-07T02:02:14.273Z,90.50
2022-09-07T02:04:48.575Z,90.00
2022-09-07T02:07:25.804Z,90.20
2022-09-07T02:10:00.981Z,90.30
2022-09-07T02:12:37.766Z,90.30
2022-09-07T02:15:15.788Z,90.50
2022-09-07T02:17:50.934Z,90.50
2022-09-07T02:20:24.489Z,91.00
2022-09-07T02:23:01.021Z,91.00
2022-09-07T02:25:37.871Z,91.30
2022-09-07T02:28:13.208Z,92.30
2022-09-07T02:30:44.141Z,91.80
2022-09-07T02:33:13.797Z,92.20
2022-09-07T02:35:43.280Z,92.30
2022-09-07T02:38:12.790Z,92.40
2022-09-07T02:40:42.291Z,93.10
2022-09-07T02:43:13.046Z,93.20
2022-09-07T02:46:05.404Z,93.00
2022-09-07T02:48:45.289Z,93.00
2022-09-07T02:51:20.111Z,93.10
2022-09-07T02:54:11.740Z,93.10
2022-09-07T02:56:55.335Z,92.60
2022-09-07T02:59:41.516Z,92.90
2022-09-07T03:02:20.703Z,93.10
2022-09-07T03:04:58.889Z,93.20
2022-09-07T03:07:35.961Z,93.20
2022-09-07T03:10:09.587Z,93.80
2022-09-07T03:12:44.916Z,93.40
2022-09-07T03:15:15.210Z,93.40
2022-09-07T03:17:46.662Z,93.80
2022-09-07T03:20:17.074Z,94.30
2022-09-07T03:22:46.998Z,93.90
2022-09-07T03:25:17.657Z,93.70
2022-09-07T03:27:47.552Z,93.40
2022-09-07T03:30:17.825Z,93.40
2022-09-07T03:32:51.934Z,93.40
2022-09-07T03:45:00.246Z,94.40
2022-09-07T03:47:31.994Z,94.00
2022-09-07T03:50:08.153Z,93.70
2022-09-07T03:52:38.449Z,94.80
2022-09-07T03:55:08.771Z,94.80
2022-09-07T03:57:38.255Z,94.80
2022-09-07T04:00:09.320Z,95.20
2022-09-07T04:02:44.745Z,94.70
2022-09-07T04:05:15.813Z,94.70
2022-09-07T04:07:45.225Z,95.00
2022-09-07T04:10:14.580Z,95.00
2022-09-07T04:12:43.978Z,95.30
2022-09-07T04:15:13.474Z,95.50
2022-09-07T04:17:42.964Z,95.60
2022-09-07T04:20:12.440Z,95.60
2022-09-07T04:22:52.553Z,95.40
2022-09-07T04:25:23.678Z,95.40
2022-09-07T04:27:53.185Z,95.20
2022-09-07T04:30:22.619Z,95.20
2022-09-07T04:32:52.046Z,95.30
2022-09-07T04:35:21.490Z,95.40
2022-09-07T04:37:52.285Z,95.30
2022-09-07T04:40:21.697Z,95.20
2022-09-07T04:42:51.322Z,94.90
2022-09-07T04:45:20.700Z,95.40
2022-09-07T04:47:50.406Z,95.20
2022-09-07T04:50:20.570Z,95.20
2022-09-07T04:52:54.658Z,95.40
2022-09-07T04:55:24.170Z,94.90
2022-09-07T04:57:53.710Z,95.00
2022-09-07T05:00:23.737Z,95.20
2022-09-07T05:02:53.181Z,95.40
2022-09-07T05:05:22.640Z,95.50
2022-09-07T05:07:53.495Z,95.40
2022-09-07T05:10:22.904Z,95.80
2022-09-07T05:12:52.476Z,95.60
2022-09-07T05:15:22.732Z,95.50
2022-09-07T05:17:52.643Z,95.60
2022-09-07T05:20:22.178Z,95.80
2022-09-07T05:22:59.634Z,95.80
2022-09-07T05:25:31.496Z,95.90
2022-09-07T05:28:00.915Z,96.00
2022-09-07T05:33:19.802Z,95.70
2022-09-07T05:35:58.537Z,95.70
2022-09-07T05:38:29.829Z,95.80
2022-09-07T05:41:00.335Z,95.90
2022-09-07T05:43:31.511Z,95.60
2022-09-07T05:46:00.903Z,95.80
2022-09-07T05:48:30.741Z,95.70
2022-09-07T05:51:00.249Z,95.80
2022-09-07T05:53:31.417Z,95.80
2022-09-07T05:56:06.475Z,95.50
2022-09-07T05:58:37.441Z,95.80
2022-09-07T06:01:09.439Z,95.90
2022-09-07T06:03:41.594Z,95.90
2022-09-07T06:06:13.566Z,96.20
2022-09-07T06:08:50.208Z,96.40
2022-09-07T06:11:23.132Z,96.60
2022-09-07T06:13:54.322Z,96.80
2022-09-07T06:16:23.962Z,96.80
2022-09-07T06:18:53.789Z,96.90
2022-09-07T06:21:25.020Z,96.90
2022-09-07T06:23:56.500Z,97.20
2022-09-07T06:26:26.027Z,97.30
2022-09-07T06:28:57.910Z,97.50
2022-09-07T06:31:27.935Z,97.50
2022-09-07T06:33:58.915Z,97.60
2022-09-07T06:36:29.434Z,97.70
2022-09-07T06:39:02.395Z,97.80
2022-09-07T06:44:23.766Z,97.70
2022-09-07T06:47:08.528Z,97.80
2022-09-07T06:49:38.007Z,97.50
2022-09-07T06:52:07.640Z,97.50
2022-09-07T06:57:30.394Z,97.50
2022-09-07T06:59:59.898Z,97.40
2022-09-07T07:02:29.458Z,97.70
2022-09-07T07:04:59.090Z,97.60
2022-09-07T07:07:28.435Z,97.80
2022-09-07T07:09:59.260Z,98.10
2022-09-07T07:15:00.439Z,97.90
2022-09-07T07:17:29.917Z,98.20
2022-09-07T07:19:59.493Z,98.30
2022-09-07T07:22:46.135Z,98.50
2022-09-07T07:25:18.247Z,98.70
2022-09-07T07:27:50.387Z,98.90
2022-09-07T07:30:21.348Z,99.20
2022-09-07T07:33:02.317Z,99.20
2022-09-07T07:35:49.501Z,99.40
2022-09-07T07:44:22.841Z,99.40
2022-09-07T07:46:52.640Z,99.80
2022-09-07T07:49:22.223Z,99.40
2022-09-07T07:54:41.191Z,99.00
2022-09-07T07:57:12.522Z,98.80
2022-09-07T07:59:43.146Z,98.80
2022-09-07T08:02:17.038Z,99.10
2022-09-07T08:04:46.818Z,98.20
2022-09-07T08:07:16.348Z,98.60
2022-09-07T08:09:47.991Z,98.80
2022-09-07T08:12:21.025Z,98.20
2022-09-07T08:14:50.618Z,97.40
2022-09-07T08:17:19.881Z,97.40
2022-09-07T08:19:49.255Z,96.80
2022-09-07T08:22:18.569Z,96.70
2022-09-07T08:24:47.893Z,96.20
2022-09-07T08:27:21.692Z,96.60
2022-09-07T08:29:51.918Z,96.50
2022-09-07T08:32:21.182Z,96.80
2022-09-07T08:34:50.544Z,97.40
2022-09-07T08:37:20.702Z,96.90
2022-09-07T08:39:50.166Z,96.50
2022-09-07T08:42:38.875Z,96.50
2022-09-07T08:45:13.138Z,95.80
2022-09-07T08:47:47.117Z,95.90
2022-09-07T08:50:25.974Z,94.90
2022-09-07T08:53:00.219Z,95.10
2022-09-07T08:55:33.550Z,94.70
2022-09-07T08:58:26.779Z,94.60
2022-09-07T09:06:53.779Z,95.40
2022-09-07T09:09:32.350Z,93.30
2022-09-07T09:12:17.047Z,93.40
2022-09-07T09:15:05.596Z,93.10
2022-09-07T09:17:40.603Z,92.20
2022-09-07T09:20:22.540Z,92.20
2022-09-07T09:22:53.808Z,91.70
2022-09-07T09:25:30.238Z,92.00
2022-09-07T09:27:59.548Z,92.90
2022-09-07T09:30:31.312Z,92.90
2022-09-07T09:33:17.740Z,92.80
2022-09-07T09:35:51.011Z,92.00
2022-09-07T09:38:44.399Z,91.50
2022-09-07T09:41:15.149Z,91.80
2022-09-07T09:43:47.931Z,91.70
2022-09-07T09:46:24.626Z,91.40
2022-09-07T09:48:59.483Z,90.80
2022-09-07T09:54:27.245Z,91.40
2022-09-07T09:56:57.100Z,90.60
2022-09-07T10:05:29.898Z,86.90
2022-09-07T10:07:59.316Z,88.00
2022-09-07T10:10:29.766Z,90.00
2022-09-07T10:12:59.471Z,90.30
2022-09-07T10:15:40.182Z,89.90
2022-09-07T10:18:21.945Z,87.00
2022-09-07T10:20:51.314Z,87.20
2022-09-07T10:23:24.358Z,87.80
2022-09-07T10:25:53.831Z,86.70
2022-09-07T10:28:25.345Z,86.80
2022-09-07T10:31:10.008Z,86.30
2022-09-07T10:36:55.913Z,86.00
2022-09-07T10:39:28.085Z,83.20
2022-09-07T10:42:09.116Z,85.30
2022-09-07T10:44:59.713Z,83.30
2022-09-07T10:47:42.857Z,84.20
2022-09-07T10:50:27.757Z,85.40
2022-09-07T10:53:37.001Z,82.90
2022-09-07T10:56:09.718Z,83.90
2022-09-07T10:59:01.849Z,82.50
2022-09-07T11:01:47.308Z,82.80
2022-09-07T11:04:49.271Z,84.20
2022-09-07T11:07:36.057Z,83.00
2022-09-07T11:10:18.213Z,81.90
2022-09-07T11:13:00.836Z,81.50
2022-09-07T11:15:34.542Z,83.00
2022-09-07T11:18:12.959Z,82.80
2022-09-07T11:20:51.040Z,81.80
2022-09-07T11:23:29.817Z,81.10
2022-09-07T11:26:10.262Z,78.30
2022-09-07T11:29:29.251Z,77.80
2022-09-07T11:31:45.551Z,78.60
2022-09-07T11:34:25.327Z,77.90
2022-09-07T11:37:01.685Z,76.80
2022-09-07T11:39:37.172Z,78.00
2022-09-07T11:45:15.179Z,77.40
2022-09-07T11:47:49.668Z,78.80
2022-09-07T11:50:23.334Z,78.30
2022-09-07T11:52:56.768Z,76.70
2022-09-07T11:55:36.651Z,77.10
2022-09-07T11:58:56.081Z,76.80
2022-09-07T12:01:38.283Z,78.00
2022-09-07T12:04:40.446Z,77.70
2022-09-07T12:07:40.300Z,77.20
2022-09-07T12:10:51.490Z,75.70
2022-09-07T12:14:00.169Z,74.70
2022-09-07T12:16:49.980Z,76.70
2022-09-07T12:19:21.684Z,75.40
2022-09-07T12:21:57.931Z,75.60
2022-09-07T12:24:43.948Z,75.60
2022-09-07T12:27:43.052Z,76.70
2022-09-07T12:30:47.498Z,77.20
2022-09-07T12:33:27.158Z,74.30
2022-09-07T12:35:59.103Z,73.50
2022-09-07T12:39:20.780Z,74.90
2022-09-07T12:44:45.089Z,74.90
2022-09-07T12:47:31.915Z,75.10
2022-09-07T12:50:21.230Z,75.90
2022-09-07T12:53:28.566Z,75.10
2022-09-07T12:56:23.156Z,74.40
2022-09-07T12:59:13.842Z,76.10
2022-09-07T13:02:00.038Z,75.30
2022-09-07T13:04:57.930Z,75.60
2022-09-07T13:08:09.177Z,75.70
2022-09-07T13:10:41.463Z,76.10
2022-09-07T13:20:20.984Z,74.40
2022-09-07T13:23:20.702Z,75.80
2022-09-07T13:25:54.714Z,74.50
2022-09-07T13:28:52.894Z,75.50
2022-09-07T13:31:43.233Z,75.00
2022-09-07T13:34:39.857Z,75.10
2022-09-07T13:37:20.169Z,75.40
2022-09-07T13:39:54.817Z,74.70
2022-09-07T13:42:29.320Z,75.60
2022-09-07T13:45:01.664Z,75.00
2022-09-07T13:47:44.097Z,75.40
2022-09-07T13:50:28.453Z,76.50
2022-09-07T13:53:23.274Z,74.70
2022-09-07T13:56:07.410Z,75.30
2022-09-07T13:58:40.771Z,74.50
2022-09-07T14:01:20.072Z,74.80
2022-09-07T14:03:53.169Z,75.50
2022-09-07T14:06:34.971Z,74.10
2022-09-07T14:09:13.499Z,73.80
2022-09-07T14:11:46.233Z,74.30
2022-09-07T14:14:22.103Z,75.40
2022-09-07T14:16:57.928Z,71.60
2022-09-07T14:19:45.310Z,71.60
2022-09-07T14:22:18.358Z,74.10
2022-09-07T14:24:53.044Z,73.30
2022-09-07T14:27:25.281Z,73.20
2022-09-07T14:29:54.747Z,73.50
2022-09-07T14:32:27.136Z,74.10
2022-09-07T14:34:56.755Z,74.00
2022-09-07T14:37:26.248Z,73.50
2022-09-07T14:39:57.402Z,73.90
2022-09-07T14:42:27.450Z,73.60
2022-09-07T14:45:20.213Z,72.80
2022-09-07T14:47:52.333Z,73.50
2022-09-07T14:50:25.043Z,73.60
2022-09-07T14:55:48.971Z,72.10
2022-09-07T14:58:25.307Z,72.90
2022-09-07T15:04:01.898Z,73.10
2022-09-07T15:09:38.605Z,71.00
2022-09-07T15:12:29.736Z,70.20
2022-09-07T15:15:13.004Z,68.90
2022-09-07T15:17:42.954Z,69.30
2022-09-07T15:20:37.549Z,71.70
2022-09-07T15:23:11.082Z,69.50
2022-09-07T15:25:44.346Z,69.60
2022-09-07T15:34:10.170Z,71.30
2022-09-07T15:36:40.965Z,70.70
2022-09-07T15:39:18.393Z,70.70
2022-09-07T15:41:48.078Z,70.20
2022-09-07T15:44:24.364Z,70.30
2022-09-07T15:49:50.034Z,70.90
2022-09-07T15:52:20.655Z,70.80
2022-09-07T15:54:50.228Z,71.60
2022-09-07T16:00:12.524Z,72.10
2022-09-07T16:05:32.089Z,70.70
2022-09-07T16:10:53.893Z,71.00
2022-09-07T16:13:24.780Z,71.20
2022-09-07T16:15:59.547Z,70.70
2022-09-07T16:18:32.620Z,71.90
2022-09-07T16:21:11.849Z,71.00
2022-09-07T16:23:44.413Z,72.50
2022-09-07T16:26:14.646Z,72.60
2022-09-07T16:28:47.154Z,72.30
2022-09-07T16:31:21.029Z,72.30
2022-09-07T16:33:50.558Z,71.50
2022-09-07T16:36:23.543Z,72.50
2022-09-07T16:38:57.997Z,72.50
2022-09-07T16:41:31.428Z,73.80
2022-09-07T16:44:01.142Z,72.30
2022-09-07T16:46:34.937Z,72.60
2022-09-07T16:49:05.578Z,71.60
2022-09-07T16:51:35.886Z,71.80
2022-09-07T16:54:06.074Z,71.60
2022-09-07T16:56:39.059Z,71.50
2022-09-07T16:59:10.497Z,72.00
2022-09-07T17:01:41.363Z,71.30
2022-09-07T17:04:11.758Z,70.80
2022-09-07T17:06:41.798Z,71.50
2022-09-07T17:09:12.980Z,71.70
2022-09-07T17:11:42.664Z,70.50
2022-09-07T17:14:13.376Z,71.10
2022-09-07T17:16:44.287Z,71.70
2022-09-07T17:19:31.830Z,71.40
2022-09-07T17:22:01.664Z,71.10
2022-09-07T17:24:32.195Z,71.40
2022-09-07T17:27:02.187Z,72.00
2022-09-07T17:29:37.012Z,72.70
2022-09-07T17:32:24.854Z,72.10
2022-09-07T17:34:55.508Z,72.20
2022-09-07T17:37:25.697Z,73.00
2022-09-07T17:39:55.224Z,72.70
2022-09-07T17:43:38.899Z,72.30
2022-09-07T17:45:17.578Z,71.90
2022-09-07T17:47:50.343Z,71.90
2022-09-07T17:50:19.689Z,71.40
2022-09-07T17:52:52.934Z,71.30
2022-09-07T17:55:22.656Z,72.30
2022-09-07T17:57:52.025Z,72.60
2022-09-07T18:00:21.602Z,72.90
2022-09-07T18:02:52.296Z,72.60
2022-09-07T18:05:21.771Z,72.50
2022-09-07T18:07:51.084Z,73.60
2022-09-07T18:10:20.491Z,73.30
2022-09-07T18:12:49.803Z,73.30
2022-09-07T18:15:22.232Z,73.70
2022-09-07T18:17:53.014Z,73.10
2022-09-07T18:20:22.892Z,72.20
2022-09-07T18:22:53.255Z,71.90
2022-09-07T18:25:22.724Z,72.10
2022-09-07T18:30:42.812Z,72.40
2022-09-07T18:33:13.651Z,73.00
2022-09-07T18:35:46.898Z,73.00
2022-09-07T18:38:17.196Z,73.00
2022-09-07T18:40:46.790Z,73.30
2022-09-07T18:43:16.343Z,73.30
2022-09-07T18:45:45.771Z,73.20
2022-09-07T18:48:16.578Z,73.80
2022-09-07T18:50:45.920Z,73.90
2022-09-07T18:53:16.941Z,74.00
2022-09-07T18:55:46.404Z,73.60
2022-09-07T18:58:15.894Z,72.40
2022-09-07T19:00:46.174Z,73.70
2022-09-07T19:03:16.961Z,73.50
2022-09-07T19:05:50.713Z,74.10
2022-09-07T19:08:20.378Z,73.70
2022-09-07T19:10:49.795Z,73.30
2022-09-07T19:13:19.113Z,73.30
2022-09-07T19:15:48.706Z,73.30
2022-09-07T19:18:19.447Z,73.40
2022-09-07T19:20:48.879Z,73.10
2022-09-07T19:23:18.226Z,73.70
2022-09-07T19:25:48.067Z,73.80
2022-09-07T19:28:19.130Z,73.50
2022-09-07T19:30:48.536Z,73.20
2022-09-07T19:33:19.306Z,73.50
2022-09-07T19:35:48.932Z,73.00
2022-09-07T19:38:18.547Z,74.00
2022-09-07T19:40:57.395Z,73.90
2022-09-07T19:43:27.186Z,73.70
2022-09-07T19:45:56.674Z,73.50
2022-09-07T19:48:27.640Z,73.40
2022-09-07T19:51:02.645Z,73.60
2022-09-07T19:53:33.948Z,72.50
2022-09-07T19:56:08.370Z,73.40
2022-09-07T19:58:40.669Z,73.30
2022-09-07T20:01:12.144Z,73.30
2022-09-07T20:04:05.191Z,73.50
2022-09-07T20:06:53.357Z,73.60
2022-09-07T20:09:40.889Z,73.70
2022-09-07T20:12:28.877Z,73.90
2022-09-07T20:15:16.496Z,74.20
2022-09-07T20:18:04.268Z,73.80
2022-09-07T20:20:53.285Z,73.70
2022-09-07T20:23:41.505Z,74.80
2022-09-07T20:26:30.442Z,74.00
2022-09-07T20:29:33.537Z,74.30
2022-09-07T20:32:21.467Z,74.50
2022-09-07T20:35:10.828Z,74.80
2022-09-07T20:38:02.385Z,74.30
2022-09-07T20:40:53.832Z,74.20
2022-09-07T20:43:41.969Z,74.10
2022-09-07T20:46:30.504Z,74.30
2022-09-07T20:49:18.102Z,74.30
2022-09-07T20:52:05.690Z,74.40
2022-09-07T20:54:54.500Z,74.20
2022-09-07T20:57:42.071Z,74.10
2022-09-07T21:00:30.415Z,74.30
2022-09-07T21:03:18.111Z,74.40
2022-09-07T21:06:08.261Z,74.60
2022-09-07T21:08:57.653Z,74.50
2022-09-07T21:11:49.673Z,73.30
2022-09-07T21:14:38.210Z,74.40
2022-09-07T21:17:25.917Z,75.30
2022-09-07T21:20:13.852Z,75.00
2022-09-07T21:23:01.563Z,74.80
2022-09-07T21:25:49.369Z,75.40
2022-09-07T21:28:38.355Z,75.50
2022-09-07T21:31:26.668Z,77.90
2022-09-07T21:34:15.628Z,76.20
2022-09-07T21:37:03.273Z,76.20
2022-09-07T21:39:51.134Z,75.60
2022-09-07T21:42:39.386Z,76.10
2022-09-07T21:45:28.591Z,76.40
2022-09-07T21:48:16.330Z,76.40
2022-09-07T21:51:04.386Z,76.00
2022-09-07T21:53:53.512Z,75.80
2022-09-07T21:56:45.858Z,75.50
2022-09-07T21:59:34.307Z,75.60
2022-09-07T22:02:23.656Z,76.00
2022-09-07T22:05:11.776Z,76.40
2022-09-07T22:07:59.468Z,76.50
2022-09-07T22:10:47.674Z,76.30
2022-09-07T22:13:35.790Z,76.20
2022-09-07T22:16:24.033Z,76.00
2022-09-07T22:19:13.356Z,76.00
2022-09-07T22:22:00.991Z,76.10
2022-09-07T22:24:49.470Z,76.50
2022-09-07T22:27:37.188Z,76.50
2022-09-07T22:30:25.277Z,76.60
2022-09-07T22:33:12.911Z,76.90
2022-09-07T22:36:12.501Z,76.40
2022-09-07T22:39:04.142Z,75.60
2022-09-07T22:41:51.825Z,76.20
2022-09-07T22:44:39.593Z,76.40
2022-09-07T22:47:27.326Z,76.30
2022-09-07T22:50:15.217Z,76.50
2022-09-07T22:53:04.588Z,77.00
2022-09-07T22:55:52.375Z,76.90
2022-09-07T22:58:40.527Z,76.90
2022-09-07T23:01:29.808Z,76.80
2022-09-07T23:04:17.789Z,76.90
2022-09-07T23:07:07.856Z,77.10
2022-09-07T23:09:56.775Z,77.40
2022-09-07T23:12:44.652Z,76.80
2022-09-07T23:15:32.868Z,76.90
2022-09-07T23:18:23.141Z,77.00
2022-09-07T23:21:12.495Z,77.70
2022-09-07T23:24:01.436Z,77.10
2022-09-07T23:26:50.903Z,76.90
2022-09-07T23:29:38.713Z,77.20
2022-09-07T23:32:26.557Z,77.40
2022-09-07T23:35:16.656Z,77.90
2022-09-07T23:38:05.066Z,77.70
2022-09-07T23:40:52.699Z,76.70
2022-09-07T23:43:43.246Z,77.20
2022-09-07T23:46:31.214Z,76.00
2022-09-07T23:49:19.306Z,76.30
2022-09-07T23:52:06.934Z,76.30
2022-09-07T23:54:54.327Z,77.70
2022-09-07T23:57:42.280Z,78.70
